createdAt,value
2022-11-25T00:01:34.135Z,95859.00
2022-11-25T00:04:03.255Z,95774.00
2022-11-25T00:06:34.041Z,95868.00
2022-11-25T00:09:07.092Z,95862.00
2022-11-25T00:11:37.625Z,95831.00
2022-11-25T00:14:06.892Z,95805.00
2022-11-25T00:16:35.179Z,95846.00
2022-11-25T00:19:03.330Z,95847.00
2022-11-25T00:21:34.914Z,95788.00
2022-11-25T00:24:08.054Z,95826.00
2022-11-25T00:26:37.594Z,95841.00
2022-11-25T00:29:10.930Z,95834.00
2022-11-25T00:31:40.932Z,95759.00
2022-11-25T00:34:13.152Z,95807.00
2022-11-25T00:36:41.509Z,95805.00
2022-11-25T00:39:14.883Z,95834.00
2022-11-25T00:42:01.898Z,95861.00
2022-11-25T00:44:40.929Z,95862.00
2022-11-25T00:47:13.403Z,95927.00
2022-11-25T00:49:45.766Z,96000.00
2022-11-25T00:52:17.915Z,95928.00
2022-11-25T00:54:48.768Z,95921.00
2022-11-25T00:57:19.369Z,95975.00
2022-11-25T00:59:48.073Z,95976.00
2022-11-25T01:02:18.312Z,95898.00
2022-11-25T01:04:46.586Z,95932.00
2022-11-25T01:07:19.165Z,95941.00
2022-11-25T01:09:50.759Z,95932.00
2022-11-25T01:12:18.927Z,95808.00
2022-11-25T01:14:47.026Z,95785.00
2022-11-25T01:17:15.569Z,95797.00
2022-11-25T01:19:43.699Z,95815.00
2022-11-25T01:22:11.788Z,95829.00
2022-11-25T01:24:39.858Z,95825.00
2022-11-25T01:27:09.233Z,95814.00
2022-11-25T01:29:37.352Z,95863.00
2022-11-25T01:32:06.002Z,94281.00
2022-11-25T01:34:34.520Z,94513.00
2022-11-25T01:37:02.965Z,95919.00
2022-11-25T01:39:33.053Z,95860.00
2022-11-25T01:42:02.650Z,95842.00
2022-11-25T01:44:34.127Z,95841.00
2022-11-25T01:47:13.127Z,95874.00
2022-11-25T01:49:45.471Z,95958.00
2022-11-25T01:52:22.124Z,95874.00
2022-11-25T01:54:56.682Z,95906.00
2022-11-25T01:57:32.324Z,95916.00
2022-11-25T02:00:07.772Z,95921.00
2022-11-25T02:02:47.589Z,95901.00
2022-11-25T02:05:21.934Z,95903.00
2022-11-25T02:07:54.056Z,95909.00
2022-11-25T02:10:28.802Z,95915.00
2022-11-25T02:12:58.390Z,95897.00
2022-11-25T02:15:30.569Z,95901.00
2022-11-25T02:17:58.923Z,95890.00
2022-11-25T02:20:27.461Z,95901.00
2022-11-25T02:23:06.245Z,95928.00
2022-11-25T02:25:38.365Z,95926.00
2022-11-25T02:28:17.017Z,95925.00
2022-11-25T02:30:46.861Z,95825.00
2022-11-25T02:33:15.899Z,95826.00
2022-11-25T02:35:49.140Z,95857.00
2022-11-25T02:38:24.919Z,95904.00
2022-11-25T02:41:00.781Z,95930.00
2022-11-25T02:43:29.438Z,95908.00
2022-11-25T02:46:01.833Z,95941.00
2022-11-25T02:49:06.780Z,95981.00
2022-11-25T02:51:27.559Z,95864.00
2022-11-25T02:53:56.604Z,95875.00
2022-11-25T02:56:31.060Z,95851.00
2022-11-25T02:58:59.633Z,95882.00
2022-11-25T03:01:31.395Z,95842.00
2022-11-25T03:04:01.025Z,95788.00
2022-11-25T03:06:29.486Z,95791.00
2022-11-25T03:08:57.846Z,95803.00
2022-11-25T03:11:43.290Z,95786.00
2022-11-25T03:14:11.781Z,95777.00
2022-11-25T03:16:40.118Z,95793.00
2022-11-25T03:19:08.888Z,95718.00
2022-11-25T03:21:36.967Z,95756.00
2022-11-25T03:24:05.461Z,95863.00
2022-11-25T03:26:35.348Z,95773.00
2022-11-25T03:29:03.543Z,95765.00
2022-11-25T03:31:32.245Z,95721.00
2022-11-25T03:34:00.403Z,95725.00
2022-11-25T03:36:28.544Z,95727.00
2022-11-25T03:38:56.631Z,95658.00
2022-11-25T03:41:24.843Z,95705.00
2022-11-25T03:43:55.138Z,95615.00
2022-11-25T03:46:24.714Z,95620.00
2022-11-25T03:48:55.163Z,95628.00
2022-11-25T03:51:24.253Z,95623.00
2022-11-25T03:53:54.812Z,95468.00
2022-11-25T03:56:24.579Z,95688.00
2022-11-25T03:58:54.010Z,95819.00
2022-11-25T04:01:23.712Z,95846.00
2022-11-25T04:03:52.043Z,95780.00
2022-11-25T04:06:21.623Z,95834.00
2022-11-25T04:08:50.960Z,95853.00
2022-11-25T04:11:19.535Z,95747.00
2022-11-25T04:13:50.446Z,95762.00
2022-11-25T04:16:26.086Z,95732.00
2022-11-25T04:18:55.515Z,95739.00
2022-11-25T04:21:24.750Z,95754.00
2022-11-25T04:23:53.110Z,95723.00
2022-11-25T04:26:22.141Z,95733.00
2022-11-25T04:28:52.640Z,95732.00
2022-11-25T04:31:23.385Z,95739.00
2022-11-25T04:33:52.848Z,95703.00
2022-11-25T04:36:23.262Z,95700.00
2022-11-25T04:38:51.810Z,95708.00
2022-11-25T04:41:23.185Z,95701.00
2022-11-25T04:43:51.385Z,95724.00
2022-11-25T04:46:25.907Z,95733.00
2022-11-25T04:48:56.454Z,95723.00
2022-11-25T04:51:24.598Z,95728.00
2022-11-25T04:53:58.152Z,95714.00
2022-11-25T04:56:27.031Z,95722.00
2022-11-25T04:59:14.371Z,95709.00
2022-11-25T05:01:47.748Z,95731.00
2022-11-25T05:04:36.223Z,95733.00
2022-11-25T05:07:04.600Z,95744.00
2022-11-25T05:09:32.950Z,95773.00
2022-11-25T05:12:09.939Z,95716.00
2022-11-25T05:14:38.583Z,95752.00
2022-11-25T05:17:11.890Z,95730.00
2022-11-25T05:19:40.051Z,95778.00
2022-11-25T05:22:12.031Z,95748.00
2022-11-25T05:24:41.853Z,95677.00
2022-11-25T05:27:10.466Z,95701.00
2022-11-25T05:29:39.112Z,95711.00
2022-11-25T05:32:10.991Z,95684.00
2022-11-25T05:34:39.742Z,95736.00
2022-11-25T05:37:11.114Z,95722.00
2022-11-25T05:39:40.862Z,95715.00
2022-11-25T05:42:17.847Z,95707.00
2022-11-25T05:44:46.915Z,95691.00
2022-11-25T05:47:16.945Z,95722.00
2022-11-25T05:49:46.014Z,95705.00
2022-11-25T05:52:14.174Z,95703.00
2022-11-25T05:54:54.402Z,95664.00
2022-11-25T05:57:25.266Z,95654.00
2022-11-25T05:59:57.592Z,95664.00
2022-11-25T06:02:44.247Z,95645.00
2022-11-25T06:05:16.273Z,95644.00
2022-11-25T06:07:44.869Z,95684.00
2022-11-25T06:10:13.616Z,95670.00
2022-11-25T06:12:42.789Z,95544.00
2022-11-25T06:15:12.619Z,95629.00
2022-11-25T06:17:42.859Z,95657.00
2022-11-25T06:20:22.344Z,95687.00
2022-11-25T06:22:50.530Z,95656.00
2022-11-25T06:25:23.923Z,95621.00
2022-11-25T06:30:42.764Z,95634.00
2022-11-25T06:33:29.352Z,95649.00
2022-11-25T06:36:05.094Z,95668.00
2022-11-25T06:38:33.714Z,95664.00
2022-11-25T06:41:03.063Z,95692.00
2022-11-25T06:43:31.773Z,95689.00
2022-11-25T06:46:05.756Z,95676.00
2022-11-25T06:48:35.640Z,95686.00
2022-11-25T06:51:07.410Z,95723.00
2022-11-25T06:53:36.914Z,95728.00
2022-11-25T06:56:12.490Z,95756.00
2022-11-25T06:58:42.054Z,95845.00
2022-11-25T07:01:15.009Z,95856.00
2022-11-25T07:03:45.930Z,95911.00
2022-11-25T07:06:15.585Z,95936.00
2022-11-25T07:08:44.538Z,95887.00
2022-11-25T07:11:18.291Z,95870.00
2022-11-25T07:13:47.476Z,95917.00
2022-11-25T07:16:16.341Z,95796.00
2022-11-25T07:18:45.925Z,95773.00
2022-11-25T07:21:16.795Z,95820.00
2022-11-25T07:23:47.379Z,95687.00
2022-11-25T07:26:19.029Z,95763.00
2022-11-25T07:28:47.209Z,95772.00
2022-11-25T07:31:24.177Z,95803.00
2022-11-25T07:33:59.668Z,95792.00
2022-11-25T07:36:30.047Z,95815.00
2022-11-25T07:39:00.079Z,95797.00
2022-11-25T07:41:29.815Z,95825.00
2022-11-25T07:44:00.285Z,95802.00
2022-11-25T07:46:33.083Z,95811.00
2022-11-25T07:49:06.506Z,95854.00
2022-11-25T07:51:38.025Z,95813.00
2022-11-25T07:54:09.572Z,95825.00
2022-11-25T07:56:41.079Z,95882.00
2022-11-25T07:59:13.998Z,95863.00
2022-11-25T08:01:42.777Z,95888.00
2022-11-25T08:04:19.803Z,95843.00
2022-11-25T08:06:51.657Z,95939.00
2022-11-25T08:09:25.213Z,95868.00
2022-11-25T08:11:54.263Z,95951.00
2022-11-25T08:14:22.665Z,95972.00
2022-11-25T08:16:51.041Z,95951.00
2022-11-25T08:19:20.638Z,95882.00
2022-11-25T08:21:49.003Z,95928.00
2022-11-25T08:24:19.961Z,95991.00
2022-11-25T08:26:48.801Z,95949.00
2022-11-25T08:29:20.132Z,96014.00
2022-11-25T08:31:48.685Z,95996.00
2022-11-25T08:34:23.414Z,95959.00
2022-11-25T08:36:56.306Z,95940.00
2022-11-25T08:42:12.640Z,95953.00
2022-11-25T08:44:40.781Z,95926.00
2022-11-25T08:47:09.975Z,95925.00
2022-11-25T08:49:41.676Z,95898.00
2022-11-25T08:52:11.048Z,95908.00
2022-11-25T08:54:39.368Z,95927.00
2022-11-25T08:57:07.514Z,95908.00
2022-11-25T08:59:36.409Z,95912.00
2022-11-25T09:02:05.542Z,95880.00
2022-11-25T09:04:33.759Z,95928.00
2022-11-25T09:07:05.563Z,95923.00
2022-11-25T09:09:34.733Z,95943.00
2022-11-25T09:12:03.145Z,95913.00
2022-11-25T09:14:31.230Z,95933.00
2022-11-25T09:16:59.292Z,95914.00
2022-11-25T09:19:27.419Z,95928.00
2022-11-25T09:21:55.676Z,95906.00
2022-11-25T09:24:25.125Z,95910.00
2022-11-25T09:26:53.312Z,95937.00
2022-11-25T09:29:21.776Z,95933.00
2022-11-25T09:31:54.714Z,95959.00
2022-11-25T09:34:23.243Z,95923.00
2022-11-25T09:36:51.543Z,95828.00
2022-11-25T09:39:19.690Z,95940.00
2022-11-25T09:42:25.672Z,95915.00
2022-11-25T09:45:32.201Z,95939.00
2022-11-25T09:48:29.007Z,95964.00
2022-11-25T09:51:11.787Z,95965.00
2022-11-25T09:53:45.796Z,95977.00
2022-11-25T09:56:32.675Z,95971.00
2022-11-25T09:59:09.157Z,95961.00
2022-11-25T10:01:48.677Z,95978.00
2022-11-25T10:04:26.036Z,95996.00
2022-11-25T10:07:01.089Z,96023.00
2022-11-25T10:09:35.139Z,96007.00
2022-11-25T10:12:14.366Z,95992.00
2022-11-25T10:14:49.506Z,96011.00
2022-11-25T10:17:34.593Z,95996.00
2022-11-25T10:20:08.635Z,96018.00
2022-11-25T10:22:41.302Z,96039.00
2022-11-25T10:25:17.015Z,96021.00
2022-11-25T10:27:51.130Z,96026.00
2022-11-25T10:30:25.010Z,96047.00
2022-11-25T10:33:02.809Z,96024.00
2022-11-25T10:35:36.621Z,96044.00
2022-11-25T10:38:18.576Z,96028.00
2022-11-25T10:40:52.625Z,96026.00
2022-11-25T10:43:20.771Z,96022.00
2022-11-25T10:45:59.765Z,96019.00
2022-11-25T10:48:56.091Z,96043.00
2022-11-25T10:51:47.014Z,96055.00
2022-11-25T10:54:25.517Z,96031.00
2022-11-25T10:56:58.752Z,96052.00
2022-11-25T10:59:31.192Z,96040.00
2022-11-25T11:02:26.633Z,96060.00
2022-11-25T11:05:02.566Z,96043.00
2022-11-25T11:07:35.425Z,96000.00
2022-11-25T11:10:19.969Z,96038.00
2022-11-25T11:13:01.144Z,96111.00
2022-11-25T11:15:32.107Z,96071.00
2022-11-25T11:18:21.422Z,96045.00
2022-11-25T11:20:53.965Z,96102.00
2022-11-25T11:23:22.865Z,96018.00
2022-11-25T11:26:03.662Z,96033.00
2022-11-25T11:28:41.150Z,96037.00
2022-11-25T11:31:20.245Z,96042.00
2022-11-25T11:34:00.914Z,96027.00
2022-11-25T11:36:46.052Z,96040.00
2022-11-25T11:39:44.741Z,96078.00
2022-11-25T11:42:28.231Z,96069.00
2022-11-25T11:45:16.829Z,96090.00
2022-11-25T11:48:05.341Z,96177.00
2022-11-25T11:50:41.556Z,96179.00
2022-11-25T11:53:23.491Z,96124.00
2022-11-25T11:56:33.584Z,95919.00
2022-11-25T11:59:13.037Z,95916.00
2022-11-25T12:01:59.073Z,95922.00
2022-11-25T12:04:32.441Z,95939.00
2022-11-25T12:07:09.837Z,95930.00
2022-11-25T12:09:47.253Z,95896.00
2022-11-25T12:12:20.181Z,95971.00
2022-11-25T12:14:52.540Z,95909.00
2022-11-25T12:17:29.650Z,95937.00
2022-11-25T12:20:06.189Z,95944.00
2022-11-25T12:22:44.988Z,95857.00
2022-11-25T12:25:21.111Z,95844.00
2022-11-25T12:27:58.802Z,95868.00
2022-11-25T12:30:34.931Z,95878.00
2022-11-25T12:33:13.337Z,95938.00
2022-11-25T12:36:03.468Z,95927.00
2022-11-25T12:38:43.860Z,95946.00
2022-11-25T12:41:24.923Z,95938.00
2022-11-25T12:44:01.576Z,95947.00
2022-11-25T12:46:40.206Z,95993.00
2022-11-25T12:49:18.149Z,96028.00
2022-11-25T12:52:16.824Z,96012.00
2022-11-25T12:55:11.501Z,95958.00
2022-11-25T12:58:25.803Z,95979.00
2022-11-25T13:01:29.316Z,96063.00
2022-11-25T13:04:36.561Z,96008.00
2022-11-25T13:07:30.178Z,96006.00
2022-11-25T13:10:49.658Z,95976.00
2022-11-25T13:13:48.176Z,95994.00
2022-11-25T13:16:18.929Z,95954.00
2022-11-25T13:18:48.317Z,95984.00
2022-11-25T13:21:19.227Z,96008.00
2022-11-25T13:23:52.142Z,95991.00
2022-11-25T13:26:50.253Z,95967.00
2022-11-25T13:30:05.067Z,95997.00
2022-11-25T13:32:42.214Z,96015.00
2022-11-25T13:35:58.122Z,95987.00
2022-11-25T13:38:59.785Z,95984.00
2022-11-25T13:41:43.032Z,95987.00
2022-11-25T13:44:27.961Z,95998.00
2022-11-25T13:46:58.334Z,95993.00
2022-11-25T13:49:37.925Z,96010.00
2022-11-25T13:52:31.742Z,95999.00
2022-11-25T13:55:01.831Z,95947.00
2022-11-25T13:57:34.066Z,95926.00
2022-11-25T14:00:10.257Z,95940.00
2022-11-25T14:02:49.436Z,95931.00
2022-11-25T14:06:01.194Z,95931.00
2022-11-25T14:08:43.369Z,95983.00
2022-11-25T14:11:40.480Z,96053.00
2022-11-25T14:14:35.408Z,96038.00
2022-11-25T14:17:31.083Z,95981.00
2022-11-25T14:20:30.974Z,95937.00
2022-11-25T14:23:36.486Z,95973.00
2022-11-25T14:26:21.018Z,96002.00
2022-11-25T14:29:04.660Z,96008.00
2022-11-25T14:31:45.664Z,96026.00
2022-11-25T14:34:23.185Z,96022.00
2022-11-25T14:36:55.640Z,96049.00
2022-11-25T14:39:32.225Z,96033.00
2022-11-25T14:42:07.899Z,96031.00
2022-11-25T14:44:46.327Z,96015.00
2022-11-25T14:47:14.416Z,96062.00
2022-11-25T14:50:18.769Z,96032.00
2022-11-25T14:52:47.565Z,95996.00
2022-11-25T14:55:27.671Z,96012.00
2022-11-25T14:57:56.409Z,95995.00
2022-11-25T15:00:25.211Z,95985.00
2022-11-25T15:02:57.019Z,96009.00
2022-11-25T15:05:32.963Z,96019.00
2022-11-25T15:08:04.582Z,96042.00
2022-11-25T15:10:43.550Z,96038.00
2022-11-25T15:13:27.878Z,96063.00
2022-11-25T15:15:57.846Z,96063.00
2022-11-25T15:18:26.902Z,96065.00
2022-11-25T15:21:00.337Z,96028.00
2022-11-25T15:23:34.508Z,96100.00
2022-11-25T15:26:03.942Z,96055.00
2022-11-25T15:28:37.007Z,96072.00
2022-11-25T15:31:12.585Z,96065.00
2022-11-25T15:33:42.356Z,95993.00
2022-11-25T15:36:11.961Z,96068.00
2022-11-25T15:38:43.989Z,96060.00
2022-11-25T15:41:22.354Z,96051.00
2022-11-25T15:43:56.180Z,96044.00
2022-11-25T15:46:26.440Z,96018.00
2022-11-25T15:49:00.124Z,96076.00
2022-11-25T15:51:39.526Z,96037.00
2022-11-25T15:54:18.494Z,95999.00
2022-11-25T15:56:51.796Z,95986.00
2022-11-25T15:59:50.963Z,96012.00
2022-11-25T16:02:39.415Z,96017.00
2022-11-25T16:05:26.113Z,95996.00
2022-11-25T16:08:26.770Z,96028.00
2022-11-25T16:10:59.297Z,96024.00
2022-11-25T16:13:36.757Z,96041.00
2022-11-25T16:16:28.736Z,96014.00
2022-11-25T16:19:13.739Z,96046.00
2022-11-25T16:21:48.324Z,96027.00
2022-11-25T16:24:46.897Z,96010.00
2022-11-25T16:27:21.185Z,96042.00
2022-11-25T16:29:53.557Z,96075.00
2022-11-25T16:32:23.812Z,96035.00
2022-11-25T16:34:52.109Z,96022.00
2022-11-25T16:37:20.166Z,96064.00
2022-11-25T16:39:49.571Z,96059.00
2022-11-25T16:42:21.613Z,96061.00
2022-11-25T16:44:53.176Z,96116.00
2022-11-25T16:47:23.938Z,96093.00
2022-11-25T16:49:52.102Z,96095.00
2022-11-25T16:52:20.310Z,96077.00
2022-11-25T16:54:49.750Z,96068.00
2022-11-25T16:57:21.872Z,96061.00
2022-11-25T16:59:58.838Z,96062.00
2022-11-25T17:02:27.479Z,96098.00
2022-11-25T17:04:58.378Z,96073.00
2022-11-25T17:07:34.236Z,96085.00
2022-11-25T17:10:04.868Z,96086.00
2022-11-25T17:12:36.014Z,96082.00
2022-11-25T17:15:09.253Z,96139.00
2022-11-25T17:17:37.578Z,96053.00
2022-11-25T17:20:08.185Z,96092.00
2022-11-25T17:22:39.362Z,96085.00
2022-11-25T17:25:12.201Z,96078.00
2022-11-25T17:27:41.949Z,96028.00
2022-11-25T17:30:19.710Z,96103.00
2022-11-25T17:32:48.977Z,96122.00
2022-11-25T17:35:20.535Z,96072.00
2022-11-25T17:37:49.671Z,96178.00
2022-11-25T17:40:19.517Z,96191.00
2022-11-25T17:42:49.937Z,96280.00
2022-11-25T17:45:21.335Z,96209.00
2022-11-25T17:47:49.999Z,96177.00
2022-11-25T17:50:21.493Z,96123.00
2022-11-25T17:52:50.511Z,96148.00
2022-11-25T17:55:21.890Z,96176.00
2022-11-25T17:57:50.848Z,96174.00
2022-11-25T18:00:22.824Z,96209.00
2022-11-25T18:02:51.528Z,96197.00
2022-11-25T18:05:23.380Z,96201.00
2022-11-25T18:07:52.481Z,96231.00
2022-11-25T18:10:26.258Z,96158.00
2022-11-25T18:12:56.983Z,96222.00
2022-11-25T18:15:28.407Z,96280.00
2022-11-25T18:18:03.452Z,96237.00
2022-11-25T18:20:32.949Z,96168.00
2022-11-25T18:23:02.225Z,96025.00
2022-11-25T18:25:34.771Z,96151.00
2022-11-25T18:28:05.332Z,96130.00
2022-11-25T18:30:36.993Z,96149.00
2022-11-25T18:33:08.995Z,96105.00
2022-11-25T18:35:37.266Z,96121.00
2022-11-25T18:38:05.738Z,96112.00
2022-11-25T18:40:39.707Z,96121.00
2022-11-25T18:43:14.576Z,96158.00
2022-11-25T18:45:42.985Z,96126.00
2022-11-25T18:48:16.761Z,96147.00
2022-11-25T18:50:46.823Z,96174.00
2022-11-25T18:53:15.508Z,96161.00
2022-11-25T18:55:45.860Z,96159.00
2022-11-25T18:58:18.884Z,96162.00
2022-11-25T19:00:49.598Z,96154.00
2022-11-25T19:03:21.627Z,96166.00
2022-11-25T19:05:50.969Z,96183.00
2022-11-25T19:08:19.452Z,96154.00
2022-11-25T19:10:50.803Z,96183.00
2022-11-25T19:13:26.673Z,96158.00
2022-11-25T19:15:55.230Z,96134.00
2022-11-25T19:18:27.594Z,96181.00
2022-11-25T19:20:56.538Z,96247.00
2022-11-25T19:23:28.220Z,96237.00
2022-11-25T19:26:04.803Z,96220.00
2022-11-25T19:28:33.396Z,96214.00
2022-11-25T19:31:04.548Z,96196.00
2022-11-25T19:33:37.570Z,96186.00
2022-11-25T19:36:06.317Z,96118.00
2022-11-25T19:38:34.831Z,96194.00
2022-11-25T19:41:04.324Z,96214.00
2022-11-25T19:43:32.380Z,96211.00
2022-11-25T19:46:00.770Z,96237.00
2022-11-25T19:48:34.902Z,96230.00
2022-11-25T19:51:04.669Z,96280.00
2022-11-25T19:53:34.331Z,96253.00
2022-11-25T19:56:05.093Z,96235.00
2022-11-25T19:58:33.233Z,96240.00
2022-11-25T20:01:05.800Z,96259.00
2022-11-25T20:03:35.048Z,96251.00
2022-11-25T20:06:03.136Z,96269.00
2022-11-25T20:08:31.227Z,96287.00
2022-11-25T20:10:59.629Z,96282.00
2022-11-25T20:13:29.067Z,96340.00
2022-11-25T20:15:59.093Z,96310.00
2022-11-25T20:18:28.607Z,96289.00
2022-11-25T20:21:03.302Z,96342.00
2022-11-25T20:23:43.007Z,96216.00
2022-11-25T20:26:18.779Z,96269.00
2022-11-25T20:28:48.569Z,96276.00
2022-11-25T20:31:16.788Z,96292.00
2022-11-25T20:33:44.966Z,96307.00
2022-11-25T20:36:17.973Z,96330.00
2022-11-25T20:38:49.819Z,96308.00
2022-11-25T20:41:20.661Z,96325.00
2022-11-25T20:43:52.784Z,96329.00
2022-11-25T20:46:23.597Z,96330.00
2022-11-25T20:48:55.492Z,96318.00
2022-11-25T20:51:25.595Z,96321.00
2022-11-25T20:53:57.440Z,96349.00
2022-11-25T20:56:28.174Z,96343.00
2022-11-25T20:58:57.793Z,96354.00
2022-11-25T21:01:25.972Z,96322.00
2022-11-25T21:03:54.108Z,96316.00
2022-11-25T21:06:27.746Z,96307.00
2022-11-25T21:08:59.163Z,96323.00
2022-11-25T21:11:32.807Z,96325.00
2022-11-25T21:14:02.488Z,96342.00
2022-11-25T21:16:30.603Z,96344.00
2022-11-25T21:18:58.675Z,96323.00
2022-11-25T21:21:33.682Z,96381.00
2022-11-25T21:24:11.248Z,96359.00
2022-11-25T21:26:39.324Z,96369.00
2022-11-25T21:29:14.449Z,96353.00
2022-11-25T21:31:42.590Z,96367.00
2022-11-25T21:34:13.631Z,96347.00
2022-11-25T21:36:45.577Z,96350.00
2022-11-25T21:39:29.851Z,96398.00
2022-11-25T21:42:03.518Z,96413.00
2022-11-25T21:44:39.139Z,96400.00
2022-11-25T21:47:15.247Z,96299.00
2022-11-25T21:49:43.747Z,96412.00
2022-11-25T21:52:12.227Z,96368.00
2022-11-25T21:54:41.286Z,96362.00
2022-11-25T21:57:16.983Z,96374.00
2022-11-25T21:59:48.455Z,96416.00
2022-11-25T22:02:19.520Z,96414.00
2022-11-25T22:04:48.091Z,96391.00
2022-11-25T22:07:16.306Z,96392.00
2022-11-25T22:09:45.202Z,96433.00
2022-11-25T22:12:28.851Z,96332.00
2022-11-25T22:15:00.706Z,96387.00
2022-11-25T22:17:30.829Z,96380.00
2022-11-25T22:19:59.372Z,96416.00
2022-11-25T22:22:28.597Z,96406.00
2022-11-25T22:24:56.625Z,96405.00
2022-11-25T22:27:28.275Z,96398.00
2022-11-25T22:29:58.462Z,96388.00
2022-11-25T22:32:27.002Z,96396.00
2022-11-25T22:34:55.076Z,96386.00
2022-11-25T22:37:25.685Z,96404.00
2022-11-25T22:39:53.909Z,96416.00
2022-11-25T22:42:29.207Z,96399.00
2022-11-25T22:45:02.171Z,96412.00
2022-11-25T22:47:38.285Z,96422.00
2022-11-25T22:50:15.770Z,96395.00
2022-11-25T22:52:43.878Z,96398.00
2022-11-25T22:55:20.282Z,96427.00
2022-11-25T22:57:50.245Z,96455.00
2022-11-25T23:00:26.612Z,96453.00
2022-11-25T23:03:00.566Z,96446.00
2022-11-25T23:05:33.352Z,96448.00
2022-11-25T23:08:01.940Z,96453.00
2022-11-25T23:10:32.473Z,96501.00
2022-11-25T23:13:00.570Z,96474.00
2022-11-25T23:15:31.111Z,96504.00
2022-11-25T23:18:02.246Z,96495.00
2022-11-25T23:20:33.228Z,96572.00
2022-11-25T23:23:12.048Z,96595.00
2022-11-25T23:25:40.268Z,96564.00
2022-11-25T23:28:08.467Z,96450.00
2022-11-25T23:30:39.154Z,96477.00
2022-11-25T23:33:19.101Z,96465.00
2022-11-25T23:35:47.327Z,96407.00
2022-11-25T23:38:22.935Z,96432.00
2022-11-25T23:40:51.231Z,96394.00
2022-11-25T23:43:20.022Z,96410.00
2022-11-25T23:45:53.405Z,96399.00
2022-11-25T23:48:25.373Z,96400.00
2022-11-25T23:50:56.247Z,96395.00
2022-11-25T23:53:30.310Z,96336.00
2022-11-25T23:55:58.556Z,96408.00
2022-11-25T23:58:26.707Z,96422.00
